Time;durP1;ratioP1;P1;durP2;ratioP2;P2;SDS_P1;SDS_P2;PMS_P1;PMS_P2;Temp;Humidity;BMP_temperature;BMP_pressure;BME280_temperature;BME280_humidity;BME280_pressure;Samples;Min_cycle;Max_cycle;Signal;HPM_P1;HPM_P2
2023/09/10 00:02:14;;;;;;;43.38;27.60;;;;;;;20.92;83.44;101657.81;5042981;28;20041;-69
2023/09/10 00:04:39;;;;;;;33.97;26.95;;;;;;;20.96;82.69;101660.88;5050430;28;20784;-68
2023/09/10 00:07:04;;;;;;;31.00;24.70;;;;;;;20.93;82.87;101659.47;5043679;28;20033;-68
2023/09/10 00:09:29;;;;;;;31.67;25.48;;;;;;;20.92;82.59;101656.97;5038169;28;20026;-69
2023/09/10 00:11:55;;;;;;;35.95;26.73;;;;;;;20.93;82.49;101655.94;5043182;28;20025;-69
2023/09/10 00:14:20;;;;;;;32.95;25.52;;;;;;;20.92;82.40;101656.97;5043246;28;20028;-69
2023/09/10 00:16:45;;;;;;;33.47;27.23;;;;;;;;;;5037764;28;20035;-68
2023/09/10 00:19:13;;;;;;;33.13;27.20;;;;;;;20.96;82.17;101658.19;5044085;28;20060;-69
2023/09/10 00:21:39;;;;;;;31.40;27.92;;;;;;;20.97;82.21;101654.44;5037051;28;20645;-69
2023/09/10 00:24:05;;;;;;;32.05;26.70;;;;;;;20.97;82.04;101651.75;5038645;28;20029;-68
2023/09/10 00:26:30;;;;;;;34.05;27.15;;;;;;;20.95;82.07;101648.44;5042545;28;21517;-69
2023/09/10 00:28:55;;;;;;;37.50;29.23;;;;;;;20.98;82.13;101654.22;5043784;28;20024;-68
2023/09/10 00:31:20;;;;;;;37.25;29.25;;;;;;;21.01;81.99;101650.25;5035327;28;20028;-68
2023/09/10 00:33:46;;;;;;;37.58;29.50;;;;;;;21.04;81.84;101649.81;5045946;28;20105;-69
2023/09/10 00:36:11;;;;;;;38.08;30.88;;;;;;;21.06;81.81;101647.72;5042021;28;20017;-69
2023/09/10 00:38:37;;;;;;;37.95;28.33;;;;;;;21.03;81.66;101650.84;5042783;28;20063;-70
2023/09/10 00:41:06;;;;;;;35.20;29.85;;;;;;;21.10;81.71;101643.50;5035392;28;20025;-69
2023/09/10 00:43:31;;;;;;;36.28;29.80;;;;;;;21.15;81.46;101645.59;5040207;28;20028;-69
2023/09/10 00:45:56;;;;;;;36.55;29.52;;;;;;;21.13;81.47;101643.09;5038321;28;20026;-69
2023/09/10 00:48:22;;;;;;;33.78;29.95;;;;;;;21.16;81.28;101639.97;5034302;28;20014;-68
2023/09/10 00:50:47;;;;;;;35.40;29.65;;;;;;;21.16;81.09;101636.44;5042916;28;20020;-69
2023/09/10 00:53:13;;;;;;;39.45;30.65;;;;;;;21.18;81.20;101643.25;5043878;28;20024;-69
2023/09/10 00:55:38;;;;;;;37.90;29.88;;;;;;;21.16;81.28;101639.97;5035052;28;20025;-69
2023/09/10 00:58:03;;;;;;;36.85;30.38;;;;;;;21.14;81.21;101636.66;5038902;28;20033;-69
2023/09/10 01:00:29;;;;;;;38.30;30.77;;;;;;;21.20;80.98;101643.03;5034493;28;20033;-69
2023/09/10 01:02:58;;;;;;;35.88;30.50;;;;;;;21.19;81.20;101635.97;5039028;28;20431;-69
2023/09/10 01:05:24;;;;;;;;;;;;;;;21.31;80.66;101645.03;5035709;28;20033;-69
2023/09/10 01:07:49;;;;;;;39.00;31.45;;;;;;;21.20;80.76;101637.63;5036353;28;19959;-69
2023/09/10 01:10:15;;;;;;;38.35;32.78;;;;;;;21.21;80.84;101642.81;5034622;28;20104;-69
2023/09/10 01:13:09;;;;;;;43.38;34.55;;;;;;;21.20;80.77;101638.47;5036324;28;20049;-69
2023/09/10 01:15:54;;;;;;;44.00;35.25;;;;;;;21.19;80.77;101642.22;5034307;28;20154;-69
2023/09/10 01:18:30;;;;;;;40.13;34.40;;;;;;;21.17;80.88;101641.59;5033891;28;20053;-69
2023/09/10 01:21:19;;;;;;;46.70;35.08;;;;;;;21.18;80.76;101645.13;5043973;28;20033;-69
2023/09/10 01:24:06;;;;;;;39.95;33.85;;;;;;;21.11;80.72;101645.19;5042213;28;20047;-69
2023/09/10 01:26:31;;;;;;;37.83;31.92;;;;;;;21.02;80.68;101641.09;5033671;28;20041;-69
2023/09/10 01:28:56;;;;;;;40.83;32.75;;;;;;;21.00;80.84;101648.59;5045454;28;20031;-69
2023/09/10 01:31:22;;;;;;;40.47;33.63;;;;;;;20.95;81.19;101643.03;5041593;28;20501;-69
2023/09/10 01:33:58;;;;;;;37.67;32.47;;;;;;;20.96;81.29;101647.38;5048524;28;20033;-69
2023/09/10 01:36:42;;;;;;;42.53;32.95;;;;;;;20.89;81.61;101644.75;5037551;28;20037;-69
2023/09/10 01:39:24;;;;;;;36.25;32.35;;;;;;;20.85;81.61;101645.41;4998569;28;1035926;-69
2023/09/10 01:41:51;;;;;;;41.60;33.90;;;;;;;20.80;81.69;101642.50;5040104;28;20024;-69
2023/09/10 01:44:18;;;;;;;41.30;33.90;;;;;;;20.76;81.87;101649.38;5049204;28;20052;-69
2023/09/10 01:46:45;;;;;;;39.80;33.72;;;;;;;20.72;82.13;101646.31;5042573;28;20158;-66
2023/09/10 01:49:10;;;;;;;41.80;33.70;;;;;;;20.66;82.17;101645.31;5038262;28;20115;-66
2023/09/10 01:51:35;;;;;;;40.08;34.50;;;;;;;20.66;82.27;101647.19;5042785;28;20112;-67
2023/09/10 01:54:01;;;;;;;41.03;34.55;;;;;;;20.62;82.38;101649.50;5044172;28;20025;-66
2023/09/10 01:56:26;;;;;;;42.33;34.58;;;;;;;20.58;82.54;101652.84;5044346;28;20029;-66
2023/09/10 01:58:51;;;;;;;46.40;35.45;;;;;;;20.55;82.66;101651.41;5045288;28;20395;-66
2023/09/10 02:01:17;;;;;;;40.67;34.20;;;;;;;20.57;82.84;101657.41;5042087;28;20036;-66
2023/09/10 02:03:42;;;;;;;43.60;37.10;;;;;;;20.58;82.98;101655.53;5038031;28;20032;-66
2023/09/10 02:06:07;;;;;;;48.92;39.03;;;;;;;20.57;83.20;101652.03;5039706;28;20029;-66
2023/09/10 02:08:32;;;;;;;45.28;39.47;;;;;;;20.59;83.19;101657.19;5041170;28;20032;-66
2023/09/10 02:11:02;;;;;;;46.95;39.20;;;;;;;20.59;83.43;101652.63;5034042;28;20034;-66
2023/09/10 02:13:28;;;;;;;47.33;39.97;;;;;;;20.63;83.36;101661.13;5038118;28;20116;-66
2023/09/10 02:15:53;;;;;;;48.40;41.53;;;;;;;20.60;83.11;101665.06;5037298;28;20124;-66
2023/09/10 02:18:18;;;;;;;46.20;39.63;;;;;;;20.64;83.25;101660.06;5041115;28;20497;-66
2023/09/10 02:20:43;;;;;;;48.53;40.10;;;;;;;20.61;83.37;101657.81;5046842;28;20029;-66
2023/09/10 02:23:09;;;;;;;47.22;39.65;;;;;;;20.64;83.37;101663.59;5038508;28;20040;-66
2023/09/10 02:25:34;;;;;;;45.75;39.65;;;;;;;20.62;83.40;101660.28;5030621;28;20475;-66
2023/09/10 02:28:00;;;;;;;46.95;38.42;;;;;;;20.57;83.20;101662.81;5030530;28;20029;-66
2023/09/10 02:30:26;;;;;;;52.25;38.38;;;;;;;20.54;83.21;101665.13;5040931;28;20091;-66
2023/09/10 02:32:51;;;;;;;48.72;38.17;;;;;;;20.53;83.40;101653.50;5038601;28;20048;-66
2023/09/10 02:35:16;;;;;;;49.15;40.67;;;;;;;20.54;83.32;101659.72;5032573;28;20429;-66
2023/09/10 02:37:42;;;;;;;45.63;39.78;;;;;;;20.52;83.52;101659.91;5041498;28;20029;-66
2023/09/10 02:40:08;;;;;;;44.97;38.13;;;;;;;20.56;83.43;101661.16;5037760;28;20127;-66
2023/09/10 02:42:33;;;;;;;45.45;39.97;;;;;;;20.54;83.45;101657.03;5042437;28;20021;-66
2023/09/10 02:44:58;;;;;;;46.60;40.08;;;;;;;20.54;83.51;101660.56;5036119;28;20104;-66
2023/09/10 02:47:24;;;;;;;46.25;39.83;;;;;;;20.55;83.57;101654.09;5039856;28;20056;-66
2023/09/10 02:49:49;;;;;;;52.55;41.30;;;;;;;20.58;83.67;101650.97;5037830;28;20100;-66
2023/09/10 02:52:15;;;;;;;48.25;41.38;;;;;;;20.53;83.42;101653.50;5034796;28;20037;-66
2023/09/10 02:54:40;;;;;;;48.95;41.95;;;;;;;20.57;83.66;101664.69;5042287;28;20029;-66
2023/09/10 02:57:05;;;;;;;49.13;42.22;;;;;;;20.56;83.37;101658.47;5038619;28;20040;-66
2023/09/10 02:59:30;;;;;;;48.35;40.70;;;;;;;20.52;83.58;101654.50;5041261;28;20742;-66
2023/09/10 03:01:56;;;;;;;47.03;39.17;;;;;;;20.49;83.50;101660.34;5035372;28;20025;-66
2023/09/10 03:04:21;;;;;;;46.65;39.83;;;;;;;20.45;83.55;101656.44;5038080;28;20028;-66
2023/09/10 03:06:49;;;;;;;46.92;40.97;;;;;;;20.44;83.83;101665.56;5034189;28;20029;-66
2023/09/10 03:09:16;;;;;;;51.55;42.58;;;;;;;20.46;83.96;101658.09;5041372;28;20057;-66
2023/09/10 03:11:43;;;;;;;50.33;42.58;;;;;;;20.46;84.01;101659.97;5033967;28;20072;-66
2023/09/10 03:14:08;;;;;;;52.22;43.08;;;;;;;20.44;84.12;101659.34;5042645;28;20031;-66
2023/09/10 03:16:35;;;;;;;53.80;43.28;;;;;;;20.41;83.95;101655.22;5037084;28;20028;-66
2023/09/10 03:19:01;;;;;;;53.85;44.35;;;;;;;20.40;84.17;101654.38;5025056;28;20032;-65
2023/09/10 03:21:27;;;;;;;52.08;45.22;;;;;;;20.38;84.41;101651.03;5042322;28;20037;-66
2023/09/10 03:23:53;;;;;;;51.80;43.80;;;;;;;20.37;84.70;101651.25;5045479;28;20052;-66
2023/09/10 03:26:18;;;;;;;54.72;45.33;;;;;;;20.34;84.64;101646.28;5045762;28;20521;-66
2023/09/10 03:28:43;;;;;;;58.10;45.08;;;;;;;20.34;84.85;101649.81;5039886;28;20013;-66
2023/09/10 03:31:09;;;;;;;54.05;44.08;;;;;;;20.29;84.87;101652.34;5041868;28;20394;-65
2023/09/10 03:33:34;;;;;;;54.00;45.22;;;;;;;20.28;84.83;101644.47;5037468;28;20021;-65
2023/09/10 03:36:00;;;;;;;51.33;44.58;;;;;;;20.32;85.46;101649.22;5034994;28;20021;-65
2023/09/10 03:38:25;;;;;;;57.83;46.47;;;;;;;20.33;85.21;101647.34;5045828;28;20370;-65
2023/09/10 03:40:50;;;;;;;62.03;46.20;;;;;;;20.27;85.28;101649.03;5045047;28;20020;-65
2023/09/10 03:43:16;;;;;;;54.05;45.47;;;;;;;20.27;85.62;101643.63;5042016;28;20839;-65
2023/09/10 03:45:41;;;;;;;55.05;47.17;;;;;;;20.26;85.54;101646.56;5042982;28;20033;-66
2023/09/10 03:48:06;;;;;;;54.72;46.60;;;;;;;20.26;85.63;101646.56;5041235;28;20470;-66
2023/09/10 03:50:32;;;;;;;58.50;47.60;;;;;;;20.27;85.78;101648.22;5039407;28;20108;-66
2023/09/10 03:52:57;;;;;;;58.10;48.70;;;;;;;20.27;85.85;101640.13;5042989;28;20033;-65
2023/09/10 03:55:22;;;;;;;58.08;47.85;;;;;;;20.23;85.97;101637.00;5041779;28;20524;-66
2023/09/10 03:57:48;;;;;;;57.38;47.88;;;;;;;20.21;86.11;101635.56;5038165;28;20086;-65
2023/09/10 04:00:13;;;;;;;59.40;49.38;;;;;;;20.15;86.07;101639.13;5039984;28;20028;-66
2023/09/10 04:02:38;;;;;;;61.72;50.58;;;;;;;20.12;86.37;101634.97;5042610;28;20060;-65
2023/09/10 04:05:05;;;;;;;55.38;47.53;;;;;;;20.09;86.49;101630.03;5044386;28;20130;-65
2023/09/10 04:07:30;;;;;;;62.75;50.30;;;;;;;20.10;86.59;101640.59;5045415;28;20563;-65
2023/09/10 04:09:55;;;;;;;61.53;50.47;;;;;;;20.13;86.39;101625.84;5046936;28;20028;-65
2023/09/10 04:12:21;;;;;;;62.10;50.83;;;;;;;20.13;86.78;101630.41;5039679;28;20025;-66
2023/09/10 04:14:46;;;;;;;62.45;49.70;;;;;;;20.13;86.72;101630.41;5041856;28;20025;-65
2023/09/10 04:17:18;;;;;;;59.20;50.22;;;;;;;20.10;86.78;101628.97;5043300;28;20044;-65
2023/09/10 04:19:44;;;;;;;58.60;49.78;;;;;;;20.12;86.93;101626.88;5038411;28;20017;-65
2023/09/10 04:22:09;;;;;;;60.90;51.83;;;;;;;20.02;87.07;101621.97;5041838;28;20149;-66
2023/09/10 04:24:34;;;;;;;58.90;48.67;;;;;;;20.02;87.14;101624.66;5039182;28;20737;-65
2023/09/10 04:27:00;;;;;;;57.45;48.15;;;;;;;19.97;86.96;101627.19;5039775;28;20569;-66
2023/09/10 04:29:25;;;;;;;57.92;46.97;;;;;;;19.89;87.19;101635.47;5036214;28;20037;-65
2023/09/10 04:31:51;;;;;;;58.28;48.03;;;;;;;19.84;87.25;101631.78;5034083;28;20032;-66
2023/09/10 04:34:16;;;;;;;54.95;47.00;;;;;;;19.80;87.24;101636.75;5039811;28;20028;-65
2023/09/10 04:36:41;;;;;;;54.13;47.28;;;;;;;19.77;87.49;101638.00;5046753;28;20690;-66
2023/09/10 04:39:08;;;;;;;57.97;48.10;;;;;;;19.73;87.48;101633.25;5033982;28;20060;-66
2023/09/10 04:41:34;;;;;;;57.47;47.13;;;;;;;19.69;87.51;101624.78;5037768;28;20104;-65
2023/09/10 04:43:59;;;;;;;60.47;48.25;;;;;;;19.63;87.80;101630.97;5034538;28;20451;-65
2023/09/10 04:46:27;;;;;;;61.65;49.92;;;;;;;19.69;88.05;101638.25;5040975;28;20033;-65
2023/09/10 04:48:52;;;;;;;56.85;49.55;;;;;;;19.69;88.16;101640.94;5041780;28;20508;-65
2023/09/10 04:51:17;;;;;;;60.33;49.22;;;;;;;19.71;88.35;101632.66;5040369;28;20055;-65
2023/09/10 04:53:44;;;;;;;55.60;48.20;;;;;;;19.67;88.46;101636.81;5038824;28;20440;-65
2023/09/10 04:56:09;;;;;;;60.95;49.38;;;;;;;19.67;88.59;101636.81;5039800;28;20061;-66
2023/09/10 04:58:34;;;;;;;61.65;48.90;;;;;;;19.69;88.48;101645.50;5038369;28;20056;-65
2023/09/10 05:01:00;;;;;;;62.78;52.75;;;;;;;19.71;88.61;101633.47;5040691;28;20049;-65
2023/09/10 05:03:25;;;;;;;59.17;49.28;;;;;;;19.71;88.47;101638.03;5044585;28;20029;-65
2023/09/10 05:06:00;;;;;;;62.67;52.28;;;;;;;19.72;88.66;101637.00;5039959;28;20025;-65
2023/09/10 05:08:27;;;;;;;63.30;52.67;;;;;;;19.76;88.78;101639.06;5044232;28;20159;-66
2023/09/10 05:10:52;;;;;;;64.47;53.28;;;;;;;19.79;88.67;101645.88;5041952;28;20043;-65
2023/09/10 05:13:18;;;;;;;62.78;52.03;;;;;;;19.71;88.69;101646.13;5041943;28;20040;-65
2023/09/10 05:15:48;;;;;;;60.40;51.28;;;;;;;19.63;88.76;101646.31;5038382;28;20044;-65
2023/09/10 05:18:13;;;;;;;62.20;50.25;;;;;;;19.62;88.66;101650.06;5043920;28;20029;-65
2023/09/10 05:20:39;;;;;;;64.40;51.78;;;;;;;19.58;88.92;101646.97;5043254;28;20092;-65
2023/09/10 05:23:04;;;;;;;64.00;53.03;;;;;;;19.62;89.05;101647.38;5041404;28;20029;-65
2023/09/10 05:25:29;;;;;;;66.68;52.42;;;;;;;19.65;89.21;101641.56;5047895;28;20029;-65
2023/09/10 05:27:54;;;;;;;59.72;50.80;;;;;;;19.58;89.38;101648.81;5041287;28;20039;-65
2023/09/10 05:30:20;;;;;;;63.78;51.60;;;;;;;19.61;89.18;101649.22;5037234;28;20045;-65
2023/09/10 05:32:45;;;;;;;67.30;52.03;;;;;;;19.61;89.39;101651.09;5039636;28;20591;-65
2023/09/10 05:35:11;;;;;;;68.40;52.22;;;;;;;19.60;89.39;101657.53;5039225;28;20110;-65
2023/09/10 05:37:36;;;;;;;60.85;51.67;;;;;;;19.58;89.44;101655.03;5041664;28;20029;-65
2023/09/10 05:40:02;;;;;;;63.70;53.63;;;;;;;19.62;89.65;101650.88;5047228;28;20036;-65
2023/09/10 05:42:28;;;;;;;70.32;55.80;;;;;;;19.67;89.75;101658.38;5045921;28;20025;-65
2023/09/10 05:44:53;;;;;;;68.68;55.42;;;;;;;19.71;90.15;101654.22;5037844;28;20032;-65
2023/09/10 05:47:20;;;;;;;70.68;54.03;;;;;;;19.75;89.78;101663.53;5039710;28;20024;-65
2023/09/10 05:49:47;;;;;;;65.00;54.28;;;;;;;19.77;90.13;101659.56;5042451;28;20116;-65
2023/09/10 05:52:12;;;;;;;72.00;55.22;;;;;;;19.82;90.02;101668.91;5042267;28;20036;-65
2023/09/10 05:54:37;;;;;;;63.63;54.20;;;;;;;19.82;90.15;101663.50;5037771;28;20032;-65
2023/09/10 05:57:03;;;;;;;60.92;52.25;;;;;;;19.85;90.18;101665.78;5041242;28;20524;-65
2023/09/10 05:59:28;;;;;;;64.72;54.35;;;;;;;19.89;90.20;101667.81;5038630;28;20028;-65
2023/09/10 06:01:53;;;;;;;61.80;53.33;;;;;;;19.93;90.20;101671.75;5043359;28;20024;-65
2023/09/10 06:04:18;;;;;;;70.50;56.25;;;;;;;19.95;90.10;101664.31;5040262;28;20026;-65
2023/09/10 06:06:44;;;;;;;67.57;55.53;;;;;;;19.99;89.78;101670.94;5041459;28;20486;-65
2023/09/10 06:09:09;;;;;;;68.72;55.75;;;;;;;20.05;89.91;101672.78;5035632;28;20025;-65
2023/09/10 06:11:34;;;;;;;67.22;54.33;;;;;;;20.12;89.92;101678.13;5038799;28;20068;-65
2023/09/10 06:14:00;;;;;;;73.05;56.20;;;;;;;20.09;89.87;101682.09;5039657;28;20021;-65
2023/09/10 06:16:25;;;;;;;67.68;55.08;;;;;;;20.10;89.66;101681.03;5035289;28;20017;-65
2023/09/10 06:18:51;;;;;;;63.92;54.17;;;;;;;20.17;89.70;101675.63;5041559;28;20025;-65
2023/09/10 06:21:16;;;;;;;64.03;55.17;;;;;;;20.30;90.03;101677.44;5034171;28;20081;-65
2023/09/10 06:23:41;;;;;;;64.22;53.63;;;;;;;20.42;90.21;101683.84;5044010;28;20044;-65
2023/09/10 06:26:07;;;;;;;66.03;54.63;;;;;;;20.42;90.12;101684.66;5040355;28;20026;-65
2023/09/10 06:28:32;;;;;;;65.15;52.83;;;;;;;20.45;89.05;101685.28;5038719;28;20091;-65
2023/09/10 06:30:57;;;;;;;64.78;53.70;;;;;;;20.54;89.18;101684.84;5032832;28;20103;-65
2023/09/10 06:33:22;;;;;;;66.57;52.15;;;;;;;20.55;88.49;101681.09;5045320;28;20028;-65
2023/09/10 06:35:48;;;;;;;69.03;53.15;;;;;;;20.60;88.22;101691.25;5036390;28;20029;-65
2023/09/10 06:38:13;;;;;;;63.13;52.28;;;;;;;20.58;87.94;101685.22;5034778;28;20128;-65
2023/09/10 06:40:38;;;;;;;66.55;52.53;;;;;;;20.68;87.69;101690.97;5040233;28;20021;-65
2023/09/10 06:43:08;;;;;;;66.35;53.67;;;;;;;20.74;87.70;101687.41;5038645;28;20032;-65
2023/09/10 06:45:33;;;;;;;69.15;54.28;;;;;;;20.76;87.52;101689.88;5045423;28;20497;-66
2023/09/10 06:47:59;;;;;;;69.90;54.00;;;;;;;20.84;87.37;101693.19;5031198;28;20025;-68
2023/09/10 06:50:24;;;;;;;71.18;53.67;;;;;;;20.85;86.84;101702.09;5038040;28;20071;-67
2023/09/10 06:52:49;;;;;;;64.72;53.20;;;;;;;20.88;86.76;101694.41;5042640;28;20053;-68
2023/09/10 06:55:14;;;;;;;66.57;53.35;;;;;;;20.95;86.80;101692.47;5050524;28;20024;-68
2023/09/10 06:57:40;;;;;;;68.05;53.63;;;;;;;20.96;86.78;101696.81;5046821;28;20493;-68
2023/09/10 07:00:06;;;;;;;62.17;51.53;;;;;;;21.03;86.63;101699.47;5033643;28;20041;-68
2023/09/10 07:02:31;;;;;;;68.38;53.40;;;;;;;21.07;86.56;101700.69;5046083;28;20477;-68
2023/09/10 07:04:56;;;;;;;69.45;53.35;;;;;;;21.10;86.43;101696.72;5040515;28;20025;-67
2023/09/10 07:07:21;;;;;;;64.68;52.40;;;;;;;21.17;86.38;101698.34;5031945;28;20501;-68
2023/09/10 07:09:47;;;;;;;63.60;51.58;;;;;;;21.20;86.54;101703.31;5035715;28;20083;-68
2023/09/10 07:12:12;;;;;;;63.30;51.08;;;;;;;21.24;86.32;101701.84;5038723;28;20040;-68
2023/09/10 07:14:37;;;;;;;62.05;51.90;;;;;;;21.30;86.50;101692.84;5050244;28;20436;-68
2023/09/10 07:17:03;;;;;;;62.70;51.50;;;;;;;21.38;86.52;101707.13;5046198;28;20029;-67
2023/09/10 07:19:28;;;;;;;61.05;51.70;;;;;;;21.46;86.62;101714.97;5045254;28;20021;-68
2023/09/10 07:21:53;;;;;;;60.75;51.28;;;;;;;21.50;86.60;101703.50;5034023;28;20030;-67
2023/09/10 07:24:20;;;;;;;62.55;51.28;;;;;;;21.56;86.39;101701.78;5034962;28;20108;-68
2023/09/10 07:26:45;;;;;;;64.57;51.47;;;;;;;21.62;86.40;101712.53;5044133;28;20410;-68
2023/09/10 07:29:15;;;;;;;62.30;51.53;;;;;;;21.67;86.32;101703.72;5031166;28;20021;-68
2023/09/10 07:31:41;;;;;;;64.35;52.35;;;;;;;21.73;86.22;101702.88;5044242;28;20033;-67
2023/09/10 07:34:06;;;;;;;62.50;52.20;;;;;;;21.74;85.77;101701.81;5031897;28;20033;-67
2023/09/10 07:36:32;;;;;;;62.85;51.17;;;;;;;21.78;85.71;101705.72;5048594;28;20051;-68
2023/09/10 07:38:57;;;;;;;62.33;50.53;;;;;;;21.85;85.61;101705.66;5048843;28;20043;-68
2023/09/10 07:41:23;;;;;;;61.28;50.88;;;;;;;21.88;85.45;101711.44;5036407;28;20048;-67
2023/09/10 07:43:49;;;;;;;57.92;48.30;;;;;;;21.96;85.04;101708.41;5048296;28;20037;-69
2023/09/10 07:46:14;;;;;;;60.03;48.28;;;;;;;22.00;84.99;101700.72;5034209;28;20455;-68
2023/09/10 07:48:39;;;;;;;58.58;48.55;;;;;;;22.06;84.94;101707.13;5050383;28;20028;-67
2023/09/10 07:51:05;;;;;;;54.20;47.53;;;;;;;22.09;84.41;101707.50;5031269;28;20029;-68
2023/09/10 07:53:30;;;;;;;60.70;48.55;;;;;;;22.17;84.49;101707.19;5034294;28;20014;-68
2023/09/10 07:55:56;;;;;;;64.70;48.65;;;;;;;22.27;84.57;101708.56;5039291;28;20116;-68
2023/09/10 07:58:22;;;;;;;60.40;48.70;;;;;;;22.34;84.75;101712.00;5030510;28;20032;-68
2023/09/10 08:00:47;;;;;;;58.22;48.47;;;;;;;22.42;84.41;101715.22;5043350;28;20437;-68
2023/09/10 08:03:14;;;;;;;59.78;47.00;;;;;;;22.48;84.39;101714.28;5031050;28;20402;-68
2023/09/10 08:05:39;;;;;;;60.85;47.65;;;;;;;22.56;84.01;101718.59;5032943;28;20100;-68
2023/09/10 08:08:05;;;;;;;58.65;47.53;;;;;;;22.64;84.01;101720.97;5040448;28;20129;-68
2023/09/10 08:10:32;;;;;;;55.50;46.40;;;;;;;22.69;84.06;101723.00;5033509;28;20055;-68
2023/09/10 08:12:57;;;;;;;60.97;47.97;;;;;;;22.77;84.08;101717.25;5050709;28;20071;-68
2023/09/10 08:15:22;;;;;;;61.80;48.83;;;;;;;22.86;84.13;101729.47;5045547;28;20517;-67
2023/09/10 08:17:50;;;;;;;58.03;46.92;;;;;;;22.94;84.03;101723.69;5048692;28;20024;-67
2023/09/10 08:20:15;;;;;;;53.20;45.10;;;;;;;23.03;84.07;101724.19;5049369;28;20667;-68
2023/09/10 08:22:43;;;;;;;53.97;43.97;;;;;;;23.05;83.70;101722.91;5050498;28;20024;-67
2023/09/10 08:25:08;;;;;;;57.92;46.05;;;;;;;23.14;83.69;101718.81;5043641;28;20048;-68
2023/09/10 08:27:35;;;;;;;51.25;44.60;;;;;;;23.24;83.58;101714.69;5036457;28;20395;-68
2023/09/10 08:30:01;;;;;;;51.28;43.35;;;;;;;23.32;83.44;101714.34;5034966;28;20025;-68
2023/09/10 08:32:26;;;;;;;51.45;44.17;;;;;;;23.38;83.16;101716.13;5038544;28;20028;-65
2023/09/10 08:34:53;;;;;;;47.40;39.92;;;;;;;23.45;82.69;101716.84;5042342;28;20052;-65
2023/09/10 08:37:18;;;;;;;49.35;40.58;;;;;;;23.54;82.48;101709.19;5030071;28;20642;-65
2023/09/10 08:39:45;;;;;;;48.25;38.45;;;;;;;23.61;81.94;101712.63;5041602;28;20032;-65
2023/09/10 08:42:36;;;;;;;43.65;34.50;;;;;;;23.72;81.63;101711.81;5048258;28;20021;-66
2023/09/10 08:45:06;;;;;;;40.38;34.35;;;;;;;23.84;81.70;101706.38;5037307;28;20067;-65
2023/09/10 08:47:40;;;;;;;37.83;31.38;;;;;;;23.91;80.69;101720.63;5029085;28;20557;-65
2023/09/10 08:50:13;;;;;;;39.42;31.30;;;;;;;23.99;80.05;101722.97;5030116;28;20721;-65
2023/09/10 08:52:43;;;;;;;41.13;31.02;;;;;;;24.08;79.98;101718.84;5029919;28;20044;-65
2023/09/10 08:55:11;;;;;;;38.55;30.10;;;;;;;24.15;79.28;101716.00;5029817;28;20141;-65
2023/09/10 08:57:39;;;;;;;38.85;30.17;;;;;;;24.27;79.39;101714.06;5041788;28;20029;-65
2023/09/10 09:00:10;;;;;;;37.35;28.67;;;;;;;24.32;78.95;101712.34;5029821;28;20021;-65
2023/09/10 09:02:36;;;;;;;35.00;27.58;;;;;;;24.43;78.75;101718.78;5029719;28;20032;-66
2023/09/10 09:05:02;;;;;;;37.63;26.77;;;;;;;24.53;78.85;101718.97;5029727;28;20091;-66
2023/09/10 09:07:33;;;;;;;35.47;27.80;;;;;;;24.63;78.40;101718.38;5033377;28;20482;-66
2023/09/10 09:10:02;;;;;;;38.60;27.95;;;;;;;24.73;78.11;101717.72;5037205;28;20071;-65
2023/09/10 09:12:30;;;;;;;35.88;27.60;;;;;;;24.82;77.99;101710.81;5028923;28;20032;-65
2023/09/10 09:14:56;;;;;;;36.75;26.63;;;;;;;24.87;77.62;101714.50;5041661;28;20712;-65
2023/09/10 09:17:22;;;;;;;34.92;25.90;;;;;;;25.02;77.67;101711.22;5041849;28;20021;-65
2023/09/10 09:19:49;;;;;;;43.65;26.52;;;;;;;25.07;76.98;101708.59;5036649;28;20029;-66
2023/09/10 09:22:20;;;;;;;37.15;26.52;;;;;;;25.16;77.14;101711.75;5035158;28;20104;-66
2023/09/10 09:24:47;;;;;;;33.45;25.27;;;;;;;25.24;76.75;101714.88;5041385;28;20071;-66
2023/09/10 09:27:13;;;;;;;31.67;25.00;;;;;;;25.42;76.60;101710.25;5042004;28;20482;-66
2023/09/10 09:29:38;;;;;;;31.92;23.95;;;;;;;25.55;76.71;101704.47;5037246;28;20029;-69
2023/09/10 09:32:04;;;;;;;31.40;24.40;;;;;;;25.72;76.36;101712.63;5035110;28;20023;-66
2023/09/10 09:34:29;;;;;;;29.67;22.40;;;;;;;25.89;75.97;101707.97;5039606;28;20029;-66
2023/09/10 09:36:55;;;;;;;29.77;21.73;;;;;;;25.98;75.18;101711.09;5036898;28;20048;-67
2023/09/10 09:39:20;;;;;;;25.65;21.67;;;;;;;26.16;74.70;101711.63;5034031;28;20022;-67
2023/09/10 09:41:53;;;;;;;29.58;20.73;;;;;;;26.33;73.97;101705.28;5040047;28;20038;-66
2023/09/10 09:44:19;;;;;;;31.90;20.73;;;;;;;26.51;73.96;101703.06;5036295;28;20029;-69
2023/09/10 09:46:45;;;;;;;25.60;19.30;;;;;;;26.61;73.29;101702.38;5036683;28;20028;-66
2023/09/10 09:49:11;;;;;;;27.23;16.30;;;;;;;26.70;72.80;101702.72;5036149;28;20024;-66
2023/09/10 09:51:38;;;;;;;26.50;17.70;;;;;;;26.76;71.62;101691.59;5038505;28;20029;-66
2023/09/10 09:54:06;;;;;;;25.27;15.43;;;;;;;26.86;71.37;101688.16;5039091;28;20048;-66
2023/09/10 09:56:31;;;;;;;25.08;15.63;;;;;;;27.04;70.88;101684.25;5042146;28;20474;-67
2023/09/10 09:58:58;;;;;;;19.95;14.18;;;;;;;27.17;70.47;101698.25;5035853;28;20087;-67
2023/09/10 10:01:23;;;;;;;25.20;12.23;;;;;;;27.35;70.09;101693.50;5037943;28;20541;-67
2023/09/10 10:03:49;;;;;;;21.23;12.63;;;;;;;27.39;68.55;101686.44;5043997;28;20654;-67
2023/09/10 10:06:17;;;;;;;18.88;10.90;;;;;;;27.52;68.01;101686.00;5042321;28;20406;-66
2023/09/10 10:08:50;;;;;;;18.48;11.02;;;;;;;27.77;67.82;101693.53;5035935;28;20295;-66
2023/09/10 10:11:17;;;;;;;21.08;11.88;;;;;;;27.90;67.14;101689.50;5040684;28;20082;-70
2023/09/10 10:13:42;;;;;;;22.85;10.73;;;;;;;27.86;66.25;101691.94;5036570;28;20505;-66
2023/09/10 10:16:08;;;;;;;20.15;11.60;;;;;;;28.07;66.47;101676.47;5039726;28;20052;-67
2023/09/10 10:18:33;;;;;;;16.83;11.75;;;;;;;28.28;66.37;101680.13;5037329;28;20028;-69
2023/09/10 10:20:59;;;;;;;15.63;11.23;;;;;;;28.27;66.16;101683.94;5040153;28;20051;-69
2023/09/10 10:23:25;;;;;;;19.67;9.90;;;;;;;28.48;65.41;101679.38;5040290;28;20062;-66
2023/09/10 10:25:52;;;;;;;16.00;9.23;;;;;;;28.61;64.94;101676.91;5042039;28;20497;-66
2023/09/10 10:28:18;;;;;;;18.45;10.57;;;;;;;28.73;64.16;101673.13;5042103;28;20512;-69
2023/09/10 10:31:02;;;;;;;16.60;9.80;;;;;;;28.81;63.66;101676.13;5045265;28;20478;-66
2023/09/10 10:33:30;;;;;;;13.52;9.15;;;;;;;28.95;62.89;101681.94;5037079;28;20045;-66
2023/09/10 10:36:15;;;;;;;14.27;8.35;;;;;;;28.96;61.81;101672.63;5031901;28;20100;-66
2023/09/10 10:38:45;;;;;;;21.10;8.80;;;;;;;28.93;61.66;101675.91;5049040;28;20091;-66
2023/09/10 10:41:16;;;;;;;13.65;8.20;;;;;;;29.12;61.66;101676.97;5033029;28;20577;-66
2023/09/10 10:43:52;;;;;;;14.50;7.65;;;;;;;29.22;61.60;101676.19;5031657;28;20104;-66
2023/09/10 10:46:20;;;;;;;15.27;8.73;;;;;;;29.20;60.71;101673.72;5035163;28;20104;-66
2023/09/10 10:48:45;;;;;;;16.20;8.02;;;;;;;29.46;61.13;101670.94;5051699;28;20021;-69
2023/09/10 10:51:14;;;;;;;19.02;7.85;;;;;;;29.52;59.51;101672.59;5043501;28;20021;-69
2023/09/10 10:53:40;;;;;;;17.58;7.03;;;;;;;29.64;59.49;101666.81;5038037;28;20105;-66
2023/09/10 10:56:06;;;;;;;13.77;7.40;;;;;;;29.76;58.29;101670.88;5042614;28;20108;-66
2023/09/10 10:58:34;;;;;;;13.10;7.03;;;;;;;29.87;57.88;101667.00;5042405;28;20056;-66
2023/09/10 11:01:01;;;;;;;11.38;7.22;;;;;;;29.95;57.57;101664.78;5046466;28;20017;-66
2023/09/10 11:03:26;;;;;;;15.55;6.97;;;;;;;30.08;57.86;101666.97;5032314;28;20407;-66
2023/09/10 11:05:51;;;;;;;13.25;6.97;;;;;;;30.11;57.11;101669.16;5036533;28;20024;-66
2023/09/10 11:08:37;;;;;;;12.10;6.38;;;;;;;30.27;54.37;101665.22;5039341;28;20027;-65